createdAt,value
2023-03-27T00:01:26.654Z,100066.78
2023-03-27T00:03:55.555Z,100071.44
2023-03-27T00:06:24.756Z,100078.88
2023-03-27T00:08:54.726Z,100090.50
2023-03-27T00:11:24.842Z,100094.00
2023-03-27T00:13:54.196Z,100093.16
2023-03-27T00:16:25.148Z,100097.50
2023-03-27T00:18:54.268Z,100109.44
2023-03-27T00:21:23.353Z,100108.72
2023-03-27T00:23:52.029Z,100107.31
2023-03-27T00:26:22.492Z,100107.19
2023-03-27T00:28:50.542Z,100116.44
2023-03-27T00:31:18.575Z,100114.63
2023-03-27T00:33:46.679Z,100116.44
2023-03-27T00:36:15.159Z,100123.00
2023-03-27T00:38:45.784Z,100130.00
2023-03-27T00:41:14.094Z,100134.81
2023-03-27T00:43:44.731Z,100131.72
2023-03-27T00:46:39.382Z,100126.09
2023-03-27T00:49:12.884Z,100136.59
2023-03-27T00:51:43.791Z,100139.28
2023-03-27T00:54:16.215Z,100139.69
2023-03-27T00:56:45.684Z,100151.88
2023-03-27T00:59:20.559Z,100151.75
2023-03-27T01:01:49.647Z,100159.97
2023-03-27T01:04:21.239Z,100165.84
2023-03-27T01:06:53.515Z,100176.88
2023-03-27T01:09:21.429Z,100180.25
2023-03-27T01:12:09.368Z,100182.22
2023-03-27T01:14:56.624Z,100185.81
2023-03-27T01:17:45.974Z,100188.91
2023-03-27T01:21:02.282Z,100185.16
2023-03-27T01:24:09.337Z,100191.50
2023-03-27T01:26:59.660Z,100193.94
2023-03-27T01:29:43.565Z,100199.97
2023-03-27T01:33:00.586Z,100208.25
2023-03-27T01:36:16.894Z,100207.97
2023-03-27T01:39:26.729Z,100211.28
2023-03-27T01:42:06.991Z,100215.53
2023-03-27T01:44:46.932Z,100219.41
2023-03-27T01:47:26.126Z,100225.09
2023-03-27T01:50:04.796Z,100219.53
2023-03-27T01:52:39.837Z,100221.13
2023-03-27T01:55:19.039Z,100224.47
2023-03-27T01:58:00.436Z,100218.97
2023-03-27T02:01:03.611Z,100235.13
2023-03-27T02:03:26.809Z,100231.22
2023-03-27T02:05:59.773Z,100233.72
2023-03-27T02:08:35.708Z,100243.75
2023-03-27T02:11:05.561Z,100248.47
2023-03-27T02:13:41.302Z,100247.38
2023-03-27T02:16:23.347Z,100258.09
2023-03-27T02:18:58.096Z,100256.63
2023-03-27T02:21:26.723Z,100254.22
2023-03-27T02:23:56.592Z,100261.94
2023-03-27T02:26:26.208Z,100271.53
2023-03-27T02:29:06.112Z,100271.50
2023-03-27T02:31:55.773Z,100277.78
2023-03-27T02:35:05.332Z,100283.63
2023-03-27T02:37:50.581Z,100284.56
2023-03-27T02:40:40.411Z,100287.56
2023-03-27T02:43:16.798Z,100291.78
2023-03-27T02:45:55.694Z,100300.41
2023-03-27T02:48:33.824Z,100303.00
2023-03-27T02:51:09.131Z,100306.41
2023-03-27T02:53:46.749Z,100310.34
2023-03-27T02:56:18.599Z,100319.75
2023-03-27T02:58:57.192Z,100328.03
2023-03-27T03:01:27.671Z,100335.78
2023-03-27T03:04:01.669Z,100331.09
2023-03-27T03:06:30.868Z,100336.38
2023-03-27T03:09:03.042Z,100345.16
2023-03-27T03:11:31.687Z,100344.09
2023-03-27T03:14:01.238Z,100349.97
2023-03-27T03:16:30.267Z,100353.16
2023-03-27T03:18:58.322Z,100357.66
2023-03-27T03:21:26.321Z,100361.84
2023-03-27T03:23:57.888Z,100365.63
2023-03-27T03:26:27.763Z,100368.75
2023-03-27T03:28:59.818Z,100372.53
2023-03-27T03:31:44.393Z,100368.66
2023-03-27T03:34:14.318Z,100379.78
2023-03-27T03:36:42.960Z,100379.56
2023-03-27T03:39:12.514Z,100381.97
2023-03-27T03:41:40.481Z,100386.31
2023-03-27T03:44:08.790Z,100391.41
2023-03-27T03:46:38.135Z,100393.31
2023-03-27T03:49:06.767Z,100393.56
2023-03-27T03:51:35.681Z,100397.28
2023-03-27T03:54:05.441Z,100395.63
2023-03-27T03:56:34.308Z,100400.06
2023-03-27T03:59:02.830Z,100416.00
2023-03-27T04:01:30.988Z,100410.34
2023-03-27T04:04:00.750Z,100407.69
2023-03-27T04:06:31.067Z,100416.88
2023-03-27T04:08:59.266Z,100419.28
2023-03-27T04:11:27.161Z,100421.78
2023-03-27T04:13:55.222Z,100422.75
2023-03-27T04:16:23.665Z,100435.31
2023-03-27T04:18:54.589Z,100436.88
2023-03-27T04:21:26.514Z,100439.16
2023-03-27T04:23:54.411Z,100449.25
2023-03-27T04:26:26.361Z,100441.34
2023-03-27T04:28:54.894Z,100451.78
2023-03-27T04:31:22.783Z,100449.78
2023-03-27T04:33:52.272Z,100461.47
2023-03-27T04:36:20.859Z,100459.00
2023-03-27T04:38:50.401Z,100470.13
2023-03-27T04:41:18.501Z,100472.28
2023-03-27T04:43:46.361Z,100470.84
2023-03-27T04:46:14.308Z,100470.94
2023-03-27T04:48:42.613Z,100474.78
2023-03-27T04:51:10.773Z,100473.69
2023-03-27T04:53:38.760Z,100476.69
2023-03-27T04:56:09.601Z,100474.47
2023-03-27T04:58:37.866Z,100482.66
2023-03-27T05:01:06.866Z,100485.44
2023-03-27T05:03:35.341Z,100480.75
2023-03-27T05:06:04.579Z,100491.28
2023-03-27T05:08:32.771Z,100497.34
2023-03-27T05:11:00.888Z,100511.09
2023-03-27T05:13:30.569Z,100503.03
2023-03-27T05:15:59.108Z,100509.97
2023-03-27T05:18:27.476Z,100508.78
2023-03-27T05:20:57.200Z,100513.91
2023-03-27T05:23:25.530Z,100522.94
2023-03-27T05:26:00.363Z,100521.88
2023-03-27T05:28:30.537Z,100527.28
2023-03-27T05:30:59.014Z,100523.56
2023-03-27T05:33:27.232Z,100537.78
2023-03-27T05:35:57.360Z,100540.63
2023-03-27T05:38:26.567Z,100540.28
2023-03-27T05:40:54.623Z,100543.66
2023-03-27T05:43:22.626Z,100559.00
2023-03-27T05:45:52.175Z,100563.88
2023-03-27T05:48:19.928Z,100564.25
2023-03-27T05:50:47.882Z,100562.84
2023-03-27T05:53:16.142Z,100569.34
2023-03-27T05:55:44.093Z,100577.28
2023-03-27T05:58:13.360Z,100573.97
2023-03-27T06:00:43.137Z,100586.28
2023-03-27T06:03:15.008Z,100590.78
2023-03-27T06:05:44.005Z,100591.06
2023-03-27T06:08:12.086Z,100591.06
2023-03-27T06:10:43.243Z,100600.38
2023-03-27T06:13:13.896Z,100596.78
2023-03-27T06:15:43.998Z,100603.53
2023-03-27T06:18:13.503Z,100607.63
2023-03-27T06:20:42.336Z,100615.28
2023-03-27T06:23:10.289Z,100621.66
2023-03-27T06:25:39.955Z,100611.47
2023-03-27T06:28:09.376Z,100625.88
2023-03-27T06:30:38.762Z,100630.94
2023-03-27T06:33:08.614Z,100629.97
2023-03-27T06:35:38.231Z,100633.97
2023-03-27T06:38:06.525Z,100635.03
2023-03-27T06:40:35.953Z,100642.06
2023-03-27T06:43:07.101Z,100640.50
2023-03-27T06:45:38.612Z,100643.63
2023-03-27T06:48:18.027Z,100647.25
2023-03-27T06:50:52.112Z,100653.06
2023-03-27T06:53:27.430Z,100650.53
2023-03-27T06:55:58.159Z,100654.28
2023-03-27T06:58:27.252Z,100660.56
2023-03-27T07:00:55.273Z,100663.81
2023-03-27T07:03:23.951Z,100667.34
2023-03-27T07:05:53.278Z,100671.56
2023-03-27T07:08:24.872Z,100667.34
2023-03-27T07:11:08.049Z,100672.69
2023-03-27T07:13:40.899Z,100672.56
2023-03-27T07:16:12.047Z,100680.41
2023-03-27T07:18:41.779Z,100674.84
2023-03-27T07:21:12.816Z,100677.97
2023-03-27T07:23:40.870Z,100689.81
2023-03-27T07:26:08.740Z,100677.31
2023-03-27T07:28:38.646Z,100681.16
2023-03-27T07:31:25.920Z,100689.38
2023-03-27T07:34:01.012Z,100696.66
2023-03-27T07:36:30.559Z,100692.34
2023-03-27T07:38:58.748Z,100699.88
2023-03-27T07:41:26.714Z,100705.53
2023-03-27T07:43:54.648Z,100705.97
2023-03-27T07:46:23.988Z,100708.50
2023-03-27T07:48:52.074Z,100699.47
2023-03-27T07:51:20.338Z,100699.00
2023-03-27T07:53:53.971Z,100706.69
2023-03-27T07:56:22.167Z,100704.66
2023-03-27T07:58:51.222Z,100697.25
2023-03-27T08:01:19.327Z,100699.72
2023-03-27T08:03:48.561Z,100707.09
2023-03-27T08:06:16.707Z,100705.78
2023-03-27T08:08:44.802Z,100708.97
2023-03-27T08:11:27.416Z,100708.25
2023-03-27T08:13:58.341Z,100700.59
2023-03-27T08:16:28.960Z,100709.81
2023-03-27T08:18:57.630Z,100711.16
2023-03-27T08:21:26.224Z,100706.63
2023-03-27T08:23:57.384Z,100715.13
2023-03-27T08:26:28.146Z,100717.75
2023-03-27T08:28:56.432Z,100715.91
2023-03-27T08:31:25.657Z,100713.38
2023-03-27T08:33:53.719Z,100706.88
2023-03-27T08:36:21.822Z,100716.09
2023-03-27T08:38:49.842Z,100726.09
2023-03-27T08:41:30.588Z,100727.44
2023-03-27T08:44:04.041Z,100726.00
2023-03-27T08:46:40.405Z,100731.47
2023-03-27T08:49:17.309Z,100739.00
2023-03-27T08:51:53.929Z,100743.44
2023-03-27T08:54:25.549Z,100748.78
2023-03-27T08:56:54.871Z,100750.56
2023-03-27T08:59:27.493Z,100752.84
2023-03-27T09:02:06.114Z,100751.28
2023-03-27T09:04:45.492Z,100748.44
2023-03-27T09:07:27.263Z,100742.50
2023-03-27T09:10:07.274Z,100760.69
2023-03-27T09:12:56.817Z,100758.75
2023-03-27T09:15:29.741Z,100756.09
2023-03-27T09:18:05.919Z,100755.94
2023-03-27T09:20:43.016Z,100758.25
2023-03-27T09:23:21.212Z,100769.50
2023-03-27T09:25:56.418Z,100768.41
2023-03-27T09:28:34.048Z,100761.59
2023-03-27T09:31:22.806Z,100775.25
2023-03-27T09:33:50.954Z,100769.13
2023-03-27T09:36:19.024Z,100783.94
2023-03-27T09:38:52.585Z,100771.78
2023-03-27T09:41:25.597Z,100786.59
2023-03-27T09:44:04.584Z,100783.53
2023-03-27T09:46:34.515Z,100786.75
2023-03-27T09:49:12.884Z,100785.09
2023-03-27T09:51:45.683Z,100784.13
2023-03-27T09:54:17.587Z,100788.88
2023-03-27T09:56:53.920Z,100778.81
2023-03-27T09:59:34.017Z,100780.16
2023-03-27T10:02:18.604Z,100776.56
2023-03-27T10:05:12.342Z,100786.63
2023-03-27T10:07:43.773Z,100764.91
2023-03-27T10:10:18.426Z,100794.78
2023-03-27T10:12:56.118Z,100782.50
2023-03-27T10:15:35.557Z,100785.97
2023-03-27T10:18:08.784Z,100792.16
2023-03-27T10:20:37.357Z,100795.94
2023-03-27T10:23:23.415Z,100787.06
2023-03-27T10:25:54.906Z,100791.06
2023-03-27T10:28:25.987Z,100795.41
2023-03-27T10:31:02.745Z,100796.22
2023-03-27T10:33:33.708Z,100795.44
2023-03-27T10:36:02.392Z,100802.44
2023-03-27T10:38:34.256Z,100816.03
2023-03-27T10:41:10.735Z,100821.34
2023-03-27T10:43:43.457Z,100810.50
2023-03-27T10:46:16.202Z,100819.94
2023-03-27T10:48:59.500Z,100829.13
2023-03-27T10:51:46.522Z,100820.97
2023-03-27T10:54:32.289Z,100818.50
2023-03-27T10:57:06.028Z,100824.56
2023-03-27T10:59:43.400Z,100827.22
2023-03-27T11:02:22.720Z,100826.13
2023-03-27T11:04:56.166Z,100834.88
2023-03-27T11:07:34.042Z,100814.28
2023-03-27T11:10:12.288Z,100812.03
2023-03-27T11:12:43.907Z,100800.78
2023-03-27T11:15:18.800Z,100813.63
2023-03-27T11:17:58.297Z,100808.69
2023-03-27T11:20:33.194Z,100820.78
2023-03-27T11:23:10.280Z,100829.19
2023-03-27T11:25:46.438Z,100815.09
2023-03-27T11:28:25.049Z,100811.88
2023-03-27T11:31:12.333Z,100824.59
2023-03-27T11:33:50.536Z,100827.56
2023-03-27T11:36:39.681Z,100830.94
2023-03-27T11:39:19.695Z,100835.16
2023-03-27T11:41:55.307Z,100834.66
2023-03-27T11:44:27.496Z,100827.53
2023-03-27T11:47:29.343Z,100831.72
2023-03-27T11:50:23.440Z,100833.56
2023-03-27T11:53:23.102Z,100831.00
2023-03-27T11:56:04.239Z,100830.84
2023-03-27T11:58:40.400Z,100845.47
2023-03-27T12:01:24.189Z,100841.75
2023-03-27T12:04:41.278Z,100839.31
2023-03-27T12:07:35.830Z,100836.41
2023-03-27T12:10:29.328Z,100833.00
2023-03-27T12:13:42.020Z,100830.63
2023-03-27T12:16:40.326Z,100843.91
2023-03-27T12:19:39.229Z,100847.28
2023-03-27T12:22:25.051Z,100831.78
2023-03-27T12:25:21.389Z,100838.25
2023-03-27T12:28:08.590Z,100833.97
2023-03-27T12:30:59.803Z,100828.34
2023-03-27T12:33:52.780Z,100836.97
2023-03-27T12:36:26.187Z,100843.88
2023-03-27T12:38:56.463Z,100846.72
2023-03-27T12:41:27.152Z,100854.34
2023-03-27T12:43:58.421Z,100848.69
2023-03-27T12:46:37.315Z,100849.53
2023-03-27T12:49:47.675Z,100859.34
2023-03-27T12:52:18.683Z,100855.72
2023-03-27T12:55:32.066Z,100857.13
2023-03-27T12:58:03.315Z,100855.66
2023-03-27T13:00:33.205Z,100852.84
2023-03-27T13:03:38.855Z,100854.44
2023-03-27T13:06:39.951Z,100873.22
2023-03-27T13:09:31.241Z,100878.00
2023-03-27T13:12:34.432Z,100881.94
2023-03-27T13:15:27.091Z,100889.25
2023-03-27T13:18:32.508Z,100905.81
2023-03-27T13:21:19.146Z,100905.16
2023-03-27T13:24:19.746Z,100911.47
2023-03-27T13:27:07.629Z,100898.00
2023-03-27T13:29:37.552Z,100896.53
2023-03-27T13:32:32.760Z,100909.59
2023-03-27T13:35:22.605Z,100899.97
2023-03-27T13:38:02.482Z,100911.13
2023-03-27T13:40:36.389Z,100908.88
2023-03-27T13:43:21.493Z,100906.75
2023-03-27T13:45:55.574Z,100906.63
2023-03-27T13:49:07.160Z,100916.31
2023-03-27T13:52:16.721Z,100905.28
2023-03-27T13:55:01.196Z,100908.38
2023-03-27T13:57:57.080Z,100899.00
2023-03-27T14:00:52.170Z,100908.09
2023-03-27T14:04:04.249Z,100906.53
2023-03-27T14:07:23.144Z,100896.78
2023-03-27T14:10:11.376Z,100895.53
2023-03-27T14:12:59.155Z,100904.25
2023-03-27T14:15:56.162Z,100903.06
2023-03-27T14:19:12.267Z,100906.78
2023-03-27T14:21:55.932Z,100908.69
2023-03-27T14:24:33.633Z,100904.91
2023-03-27T14:27:05.272Z,100913.19
2023-03-27T14:29:34.728Z,100903.22
2023-03-27T14:32:04.669Z,100904.13
2023-03-27T14:34:47.241Z,100904.44
2023-03-27T14:37:30.017Z,100901.50
2023-03-27T14:40:01.497Z,100911.34
2023-03-27T14:42:33.185Z,100909.22
2023-03-27T14:45:22.807Z,100901.31
2023-03-27T14:47:56.606Z,100904.66
2023-03-27T14:50:29.881Z,100906.09
2023-03-27T14:53:00.268Z,100908.50
2023-03-27T14:55:34.323Z,100902.91
2023-03-27T14:58:11.514Z,100902.47
2023-03-27T15:00:42.625Z,100907.31
2023-03-27T15:03:19.016Z,100910.97
2023-03-27T15:06:04.487Z,100909.03
2023-03-27T15:08:38.792Z,100908.16
2023-03-27T15:11:12.848Z,100909.88
2023-03-27T15:13:41.014Z,100902.22
2023-03-27T15:16:15.981Z,100908.59
2023-03-27T15:19:00.335Z,100905.63
2023-03-27T15:21:45.422Z,100906.47
2023-03-27T15:24:25.506Z,100908.72
2023-03-27T15:26:56.563Z,100910.72
2023-03-27T15:29:38.792Z,100905.06
2023-03-27T15:32:11.886Z,100912.41
2023-03-27T15:34:47.325Z,100917.19
2023-03-27T15:37:20.106Z,100904.09
2023-03-27T15:40:28.454Z,100908.16
2023-03-27T15:43:04.383Z,100909.97
2023-03-27T15:45:39.812Z,100902.41
2023-03-27T15:48:19.679Z,100908.56
2023-03-27T15:51:00.423Z,100914.78
2023-03-27T15:53:36.565Z,100924.03
2023-03-27T15:56:08.697Z,100930.41
2023-03-27T15:58:49.219Z,100933.22
2023-03-27T16:01:22.523Z,100934.03
2023-03-27T16:03:52.216Z,100945.66
2023-03-27T16:06:30.721Z,100944.84
2023-03-27T16:09:01.219Z,100979.69
2023-03-27T16:11:45.783Z,100974.78
2023-03-27T16:14:30.879Z,100976.41
2023-03-27T16:17:22.484Z,100975.63
2023-03-27T16:19:54.555Z,100967.50
2023-03-27T16:22:27.908Z,100960.56
2023-03-27T16:24:58.680Z,100959.03
2023-03-27T16:27:33.014Z,100958.09
2023-03-27T16:30:01.305Z,100954.97
2023-03-27T16:32:29.452Z,100955.53
2023-03-27T16:34:57.505Z,100960.81
2023-03-27T16:37:27.237Z,100960.25
2023-03-27T16:39:58.004Z,100969.22
2023-03-27T16:42:26.610Z,100968.13
2023-03-27T16:44:55.238Z,100982.81
2023-03-27T16:47:24.687Z,100969.59
2023-03-27T16:50:08.061Z,100971.75
2023-03-27T16:52:38.814Z,100978.16
2023-03-27T16:55:11.540Z,100979.69
2023-03-27T16:57:39.884Z,100981.03
2023-03-27T17:00:11.015Z,100976.34
2023-03-27T17:02:43.438Z,100985.94
2023-03-27T17:27:22.322Z,101042.78
2023-03-27T17:31:06.032Z,101044.22
2023-03-27T17:33:34.527Z,101049.44
2023-03-27T17:36:07.629Z,101052.59
2023-03-27T17:38:36.126Z,101051.34
2023-03-27T17:41:05.286Z,101055.94
2023-03-27T17:43:34.626Z,101059.22
2023-03-27T17:46:02.825Z,101057.22
2023-03-27T17:48:34.077Z,101054.25
2023-03-27T17:51:08.683Z,101048.50
2023-03-27T17:53:37.353Z,101060.38
2023-03-27T17:56:06.506Z,101054.31
2023-03-27T17:58:37.132Z,101044.34
2023-03-27T18:01:17.094Z,101045.06
2023-03-27T18:03:46.205Z,101043.47
2023-03-27T18:06:17.309Z,101048.81
2023-03-27T18:08:46.454Z,101055.84
2023-03-27T18:11:17.019Z,101050.97
2023-03-27T18:13:51.316Z,101051.94
2023-03-27T18:16:21.822Z,101052.22
2023-03-27T18:18:51.050Z,101047.19
2023-03-27T18:21:19.004Z,101051.66
2023-03-27T18:23:47.110Z,101054.13
2023-03-27T18:26:16.512Z,101056.53
2023-03-27T18:28:46.094Z,101075.56
2023-03-27T18:31:15.254Z,101082.75
2023-03-27T18:33:43.359Z,101073.91
2023-03-27T18:36:12.420Z,101073.09
2023-03-27T18:38:42.845Z,101083.31
2023-03-27T18:41:12.091Z,101073.66
2023-03-27T18:43:40.257Z,101068.28
2023-03-27T18:46:13.966Z,101064.47
2023-03-27T18:48:42.740Z,101061.25
2023-03-27T18:51:11.199Z,101061.69
2023-03-27T18:53:39.218Z,101065.63
2023-03-27T18:56:08.398Z,101073.50
2023-03-27T18:58:36.851Z,101066.91
2023-03-27T19:01:10.633Z,101065.97
2023-03-27T19:03:42.126Z,101069.38
2023-03-27T19:06:12.771Z,101059.56
2023-03-27T19:08:42.061Z,101051.47
2023-03-27T19:11:11.611Z,101056.50
2023-03-27T19:13:39.396Z,101055.41
2023-03-27T19:16:14.452Z,101052.75
2023-03-27T19:18:43.608Z,101056.50
2023-03-27T19:21:11.556Z,101054.69
2023-03-27T19:23:39.513Z,101050.31
2023-03-27T19:26:10.316Z,101052.97
2023-03-27T19:28:42.379Z,101054.63
2023-03-27T19:31:13.552Z,101053.59
2023-03-27T19:33:43.490Z,101052.56
2023-03-27T19:36:11.684Z,101052.56
2023-03-27T19:38:39.715Z,101048.50
2023-03-27T19:41:11.177Z,101050.75
2023-03-27T19:43:39.240Z,101047.59
2023-03-27T19:46:15.921Z,101048.53
2023-03-27T19:48:47.366Z,101041.13
2023-03-27T19:51:15.388Z,101048.75
2023-03-27T19:53:43.377Z,101047.06
2023-03-27T19:56:11.543Z,101047.06
2023-03-27T19:58:39.589Z,101048.53
2023-03-27T20:01:07.630Z,101044.06
2023-03-27T20:03:38.572Z,101034.50
2023-03-27T20:06:13.235Z,101036.09
2023-03-27T20:08:43.664Z,101038.34
2023-03-27T20:11:12.089Z,101044.81
2023-03-27T20:13:53.000Z,101038.34
2023-03-27T20:16:23.489Z,101036.34
2023-03-27T20:18:55.296Z,101030.78
2023-03-27T20:21:26.083Z,101038.25
2023-03-27T20:23:54.759Z,101041.97
2023-03-27T20:26:23.578Z,101030.25
2023-03-27T20:28:52.660Z,101028.69
2023-03-27T20:31:21.882Z,101033.16
2023-03-27T20:33:49.910Z,101022.97
2023-03-27T20:36:19.758Z,101019.22
2023-03-27T20:38:49.758Z,101022.84
2023-03-27T20:41:17.906Z,101030.94
2023-03-27T20:43:47.288Z,101026.69
2023-03-27T20:46:15.314Z,101026.44
2023-03-27T20:48:53.805Z,101032.63
2023-03-27T20:51:24.673Z,101030.94
2023-03-27T20:53:58.111Z,101028.56
2023-03-27T20:56:27.019Z,101033.16
2023-03-27T20:58:55.112Z,101030.50
2023-03-27T21:01:27.881Z,101015.00
2023-03-27T21:03:58.106Z,101017.94
2023-03-27T21:06:26.351Z,101011.59
2023-03-27T21:08:55.884Z,101009.66
2023-03-27T21:11:23.625Z,100996.38
2023-03-27T21:13:51.533Z,101007.84
2023-03-27T21:16:19.693Z,101021.47
2023-03-27T21:18:47.830Z,101006.38
2023-03-27T21:21:15.808Z,101019.44
2023-03-27T21:23:43.752Z,101021.56
2023-03-27T21:26:13.158Z,101012.56
2023-03-27T21:28:41.128Z,101001.63
2023-03-27T21:31:10.731Z,101016.38
2023-03-27T21:33:39.455Z,101036.66
2023-03-27T21:36:09.766Z,101017.44
2023-03-27T21:38:37.962Z,101020.41
2023-03-27T21:41:07.186Z,101012.00
2023-03-27T21:43:36.551Z,101009.03
2023-03-27T21:46:05.237Z,101006.50
2023-03-27T21:48:33.326Z,101008.41
2023-03-27T21:51:02.003Z,101005.63
2023-03-27T21:53:30.722Z,101013.50
2023-03-27T21:55:59.441Z,101009.91
2023-03-27T21:58:28.124Z,101019.13
2023-03-27T22:01:00.003Z,101020.53
2023-03-27T22:03:29.845Z,101019.56
2023-03-27T22:06:11.681Z,101025.41
2023-03-27T22:08:42.318Z,101028.50
2023-03-27T22:11:11.312Z,101024.66
2023-03-27T22:13:40.425Z,101030.50
2023-03-27T22:16:12.441Z,101040.06
2023-03-27T22:18:40.888Z,101036.03
2023-03-27T22:21:18.594Z,101036.25
2023-03-27T22:23:48.890Z,101043.88
2023-03-27T22:26:17.250Z,101050.69
2023-03-27T22:28:45.387Z,101063.00
2023-03-27T22:31:15.027Z,101062.28
2023-03-27T22:33:43.078Z,101051.13
2023-03-27T22:36:12.807Z,101045.59
2023-03-27T22:38:41.293Z,101055.50
2023-03-27T22:41:12.314Z,101065.59
2023-03-27T22:43:41.031Z,101062.19
2023-03-27T22:46:12.842Z,101061.44
2023-03-27T22:48:43.120Z,101074.09
2023-03-27T22:51:13.247Z,101056.00
2023-03-27T22:53:41.941Z,101059.19
2023-03-27T22:56:10.860Z,101069.06
2023-03-27T22:58:39.045Z,101048.78
2023-03-27T23:01:08.164Z,101069.94
2023-03-27T23:03:36.256Z,101081.53
2023-03-27T23:06:07.291Z,101069.41
2023-03-27T23:08:35.234Z,101070.69
2023-03-27T23:11:06.628Z,101070.47
2023-03-27T23:13:36.409Z,101074.31
2023-03-27T23:16:04.562Z,101074.00
2023-03-27T23:18:32.571Z,101077.28
2023-03-27T23:21:03.519Z,101090.03
2023-03-27T23:23:34.925Z,101081.41
2023-03-27T23:26:03.716Z,101077.47
2023-03-27T23:28:35.624Z,101086.53
2023-03-27T23:31:06.246Z,101097.03
2023-03-27T23:33:38.190Z,101105.75
2023-03-27T23:36:09.837Z,101098.72
2023-03-27T23:38:41.314Z,101096.41
2023-03-27T23:41:11.553Z,101107.03
2023-03-27T23:43:39.771Z,101112.56
2023-03-27T23:46:10.762Z,101116.38
2023-03-27T23:48:41.191Z,101125.31
2023-03-27T23:51:11.374Z,101139.91
2023-03-27T23:53:41.157Z,101147.44
2023-03-27T23:56:10.579Z,101158.09
2023-03-27T23:58:38.736Z,101153.09
